sensor_id;sensor_type;location;lat;lon;timestamp;temperature;humidity
74294;DHT22;62688;59.904;10.738;2022-08-30T00:01:27;16.80;38.80
74294;DHT22;62688;59.904;10.738;2022-08-30T00:03:53;16.70;38.60
74294;DHT22;62688;59.904;10.738;2022-08-30T00:06:19;16.70;39.00
74294;DHT22;62688;59.904;10.738;2022-08-30T00:08:45;16.70;38.90
74294;DHT22;62688;59.904;10.738;2022-08-30T00:11:14;16.60;39.60
74294;DHT22;62688;59.904;10.738;2022-08-30T00:13:41;16.60;39.90
74294;DHT22;62688;59.904;10.738;2022-08-30T00:16:07;16.60;39.90
74294;DHT22;62688;59.904;10.738;2022-08-30T00:18:33;16.50;39.50
74294;DHT22;62688;59.904;10.738;2022-08-30T00:20:59;16.50;39.00
74294;DHT22;62688;59.904;10.738;2022-08-30T00:23:25;16.50;40.30
74294;DHT22;62688;59.904;10.738;2022-08-30T00:25:50;16.40;40.40
74294;DHT22;62688;59.904;10.738;2022-08-30T00:28:16;16.40;38.60
74294;DHT22;62688;59.904;10.738;2022-08-30T00:30:42;16.40;38.80
74294;DHT22;62688;59.904;10.738;2022-08-30T00:33:08;16.40;37.60
74294;DHT22;62688;59.904;10.738;2022-08-30T00:35:34;16.30;38.30
74294;DHT22;62688;59.904;10.738;2022-08-30T00:37:59;16.30;38.30
74294;DHT22;62688;59.904;10.738;2022-08-30T00:40:25;16.40;37.70
74294;DHT22;62688;59.904;10.738;2022-08-30T00:42:52;16.30;37.40
74294;DHT22;62688;59.904;10.738;2022-08-30T00:45:19;16.30;37.90
74294;DHT22;62688;59.904;10.738;2022-08-30T00:47:45;16.30;37.50
74294;DHT22;62688;59.904;10.738;2022-08-30T00:50:11;16.30;37.50
74294;DHT22;62688;59.904;10.738;2022-08-30T00:52:38;16.30;37.90
74294;DHT22;62688;59.904;10.738;2022-08-30T00:55:05;16.30;38.60
74294;DHT22;62688;59.904;10.738;2022-08-30T00:57:31;16.30;38.00
74294;DHT22;62688;59.904;10.738;2022-08-30T00:59:58;16.30;37.10
74294;DHT22;62688;59.904;10.738;2022-08-30T01:02:24;16.30;37.10
74294;DHT22;62688;59.904;10.738;2022-08-30T01:04:52;16.30;37.20
74294;DHT22;62688;59.904;10.738;2022-08-30T01:07:19;16.30;37.30
74294;DHT22;62688;59.904;10.738;2022-08-30T01:09:45;16.30;37.80
74294;DHT22;62688;59.904;10.738;2022-08-30T01:12:11;16.30;38.10
74294;DHT22;62688;59.904;10.738;2022-08-30T01:14:36;16.30;37.50
74294;DHT22;62688;59.904;10.738;2022-08-30T01:17:02;16.30;36.90
74294;DHT22;62688;59.904;10.738;2022-08-30T01:19:34;16.30;37.20
74294;DHT22;62688;59.904;10.738;2022-08-30T01:24:44;16.30;39.40
74294;DHT22;62688;59.904;10.738;2022-08-30T01:27:13;16.30;37.80
74294;DHT22;62688;59.904;10.738;2022-08-30T01:29:39;16.30;37.90
74294;DHT22;62688;59.904;10.738;2022-08-30T01:32:16;16.30;37.60
74294;DHT22;62688;59.904;10.738;2022-08-30T01:34:43;16.30;38.60
74294;DHT22;62688;59.904;10.738;2022-08-30T01:37:09;16.30;37.80
74294;DHT22;62688;59.904;10.738;2022-08-30T01:39:34;16.30;38.30
74294;DHT22;62688;59.904;10.738;2022-08-30T01:42:00;16.30;38.60
74294;DHT22;62688;59.904;10.738;2022-08-30T01:44:26;16.30;41.30
74294;DHT22;62688;59.904;10.738;2022-08-30T01:46:51;16.30;39.60
74294;DHT22;62688;59.904;10.738;2022-08-30T01:49:17;16.20;39.20
74294;DHT22;62688;59.904;10.738;2022-08-30T01:51:43;16.20;39.20
74294;DHT22;62688;59.904;10.738;2022-08-30T01:54:09;16.20;38.50
74294;DHT22;62688;59.904;10.738;2022-08-30T01:56:35;16.20;40.00
74294;DHT22;62688;59.904;10.738;2022-08-30T01:59:00;16.20;39.20
74294;DHT22;62688;59.904;10.738;2022-08-30T02:01:27;16.20;38.10
74294;DHT22;62688;59.904;10.738;2022-08-30T02:03:53;16.20;38.50
74294;DHT22;62688;59.904;10.738;2022-08-30T02:06:20;16.20;38.40
74294;DHT22;62688;59.904;10.738;2022-08-30T02:08:46;16.20;38.40
74294;DHT22;62688;59.904;10.738;2022-08-30T02:11:12;16.20;38.80
74294;DHT22;62688;59.904;10.738;2022-08-30T02:13:38;16.20;40.20
74294;DHT22;62688;59.904;10.738;2022-08-30T02:16:05;16.20;39.30
74294;DHT22;62688;59.904;10.738;2022-08-30T02:18:31;16.20;38.80
74294;DHT22;62688;59.904;10.738;2022-08-30T02:20:57;16.20;38.90
74294;DHT22;62688;59.904;10.738;2022-08-30T02:23:23;16.10;39.60
74294;DHT22;62688;59.904;10.738;2022-08-30T02:25:48;16.10;38.60
74294;DHT22;62688;59.904;10.738;2022-08-30T02:28:14;16.10;39.60
74294;DHT22;62688;59.904;10.738;2022-08-30T02:30:40;16.10;39.30
74294;DHT22;62688;59.904;10.738;2022-08-30T02:33:06;16.10;38.70
74294;DHT22;62688;59.904;10.738;2022-08-30T02:35:31;16.10;39.90
74294;DHT22;62688;59.904;10.738;2022-08-30T02:37:57;16.10;39.80
74294;DHT22;62688;59.904;10.738;2022-08-30T02:40:22;16.10;40.20
74294;DHT22;62688;59.904;10.738;2022-08-30T02:42:48;16.10;42.00
74294;DHT22;62688;59.904;10.738;2022-08-30T02:45:14;16.10;41.70
74294;DHT22;62688;59.904;10.738;2022-08-30T02:47:40;16.00;40.40
74294;DHT22;62688;59.904;10.738;2022-08-30T02:50:06;16.00;40.60
74294;DHT22;62688;59.904;10.738;2022-08-30T02:52:32;16.00;40.70
74294;DHT22;62688;59.904;10.738;2022-08-30T02:54:57;16.00;41.10
74294;DHT22;62688;59.904;10.738;2022-08-30T02:57:24;16.00;40.80
74294;DHT22;62688;59.904;10.738;2022-08-30T02:59:49;15.90;40.30
74294;DHT22;62688;59.904;10.738;2022-08-30T03:02:15;15.90;40.80
74294;DHT22;62688;59.904;10.738;2022-08-30T03:04:41;15.90;41.80
74294;DHT22;62688;59.904;10.738;2022-08-30T03:07:08;15.80;41.90
74294;DHT22;62688;59.904;10.738;2022-08-30T03:09:34;15.80;42.20
74294;DHT22;62688;59.904;10.738;2022-08-30T03:12:00;15.80;42.40
74294;DHT22;62688;59.904;10.738;2022-08-30T03:14:26;15.80;41.40
74294;DHT22;62688;59.904;10.738;2022-08-30T03:16:52;15.80;40.50
74294;DHT22;62688;59.904;10.738;2022-08-30T03:19:18;15.70;41.70
74294;DHT22;62688;59.904;10.738;2022-08-30T03:21:44;15.70;40.50
74294;DHT22;62688;59.904;10.738;2022-08-30T03:24:10;15.70;40.70
74294;DHT22;62688;59.904;10.738;2022-08-30T03:26:37;15.70;41.20
74294;DHT22;62688;59.904;10.738;2022-08-30T03:29:03;15.60;40.30
74294;DHT22;62688;59.904;10.738;2022-08-30T03:31:28;15.60;40.90
74294;DHT22;62688;59.904;10.738;2022-08-30T03:33:54;15.60;41.50
74294;DHT22;62688;59.904;10.738;2022-08-30T03:36:19;15.60;42.70
74294;DHT22;62688;59.904;10.738;2022-08-30T03:38:45;15.50;41.70
74294;DHT22;62688;59.904;10.738;2022-08-30T03:41:11;15.50;41.90
74294;DHT22;62688;59.904;10.738;2022-08-30T03:43:36;15.50;41.50
74294;DHT22;62688;59.904;10.738;2022-08-30T03:46:02;15.50;41.80
74294;DHT22;62688;59.904;10.738;2022-08-30T03:48:28;15.40;42.70
74294;DHT22;62688;59.904;10.738;2022-08-30T03:50:53;15.40;43.40
74294;DHT22;62688;59.904;10.738;2022-08-30T03:53:19;15.40;43.30
74294;DHT22;62688;59.904;10.738;2022-08-30T03:55:44;15.40;44.60
74294;DHT22;62688;59.904;10.738;2022-08-30T03:58:10;15.40;43.50
74294;DHT22;62688;59.904;10.738;2022-08-30T04:00:36;15.40;42.70
74294;DHT22;62688;59.904;10.738;2022-08-30T04:03:01;15.40;42.20
74294;DHT22;62688;59.904;10.738;2022-08-30T04:05:27;15.40;42.70
74294;DHT22;62688;59.904;10.738;2022-08-30T04:07:52;15.40;42.50
74294;DHT22;62688;59.904;10.738;2022-08-30T04:10:18;15.40;41.90
74294;DHT22;62688;59.904;10.738;2022-08-30T04:12:48;15.50;42.00
74294;DHT22;62688;59.904;10.738;2022-08-30T04:15:14;15.50;42.00
74294;DHT22;62688;59.904;10.738;2022-08-30T04:17:40;15.50;41.30
74294;DHT22;62688;59.904;10.738;2022-08-30T04:20:05;15.50;43.10
74294;DHT22;62688;59.904;10.738;2022-08-30T04:22:31;15.50;43.30
74294;DHT22;62688;59.904;10.738;2022-08-30T04:24:57;15.50;42.10
74294;DHT22;62688;59.904;10.738;2022-08-30T04:27:22;15.50;41.70
74294;DHT22;62688;59.904;10.738;2022-08-30T04:29:48;15.60;42.10
74294;DHT22;62688;59.904;10.738;2022-08-30T04:32:13;15.60;41.20
74294;DHT22;62688;59.904;10.738;2022-08-30T04:34:39;15.60;41.70
74294;DHT22;62688;59.904;10.738;2022-08-30T04:37:04;15.60;42.00
74294;DHT22;62688;59.904;10.738;2022-08-30T04:39:31;15.70;42.20
74294;DHT22;62688;59.904;10.738;2022-08-30T04:41:56;15.70;42.00
74294;DHT22;62688;59.904;10.738;2022-08-30T04:44:22;15.70;41.90
74294;DHT22;62688;59.904;10.738;2022-08-30T04:46:48;15.80;41.90
74294;DHT22;62688;59.904;10.738;2022-08-30T04:49:13;15.80;43.20
74294;DHT22;62688;59.904;10.738;2022-08-30T04:51:39;15.80;43.40
74294;DHT22;62688;59.904;10.738;2022-08-30T04:54:04;15.90;43.10
74294;DHT22;62688;59.904;10.738;2022-08-30T04:56:31;15.90;42.70
74294;DHT22;62688;59.904;10.738;2022-08-30T04:58:56;15.90;42.20
74294;DHT22;62688;59.904;10.738;2022-08-30T05:01:24;16.00;42.10
74294;DHT22;62688;59.904;10.738;2022-08-30T05:03:50;16.00;41.90
74294;DHT22;62688;59.904;10.738;2022-08-30T05:06:16;16.10;42.10
74294;DHT22;62688;59.904;10.738;2022-08-30T05:08:42;16.10;41.90
74294;DHT22;62688;59.904;10.738;2022-08-30T05:11:07;16.10;42.10
74294;DHT22;62688;59.904;10.738;2022-08-30T05:13:34;16.20;42.00
74294;DHT22;62688;59.904;10.738;2022-08-30T05:16:00;16.20;42.20
74294;DHT22;62688;59.904;10.738;2022-08-30T05:18:25;16.20;42.30
74294;DHT22;62688;59.904;10.738;2022-08-30T05:23:35;16.40;43.70
74294;DHT22;62688;59.904;10.738;2022-08-30T05:26:20;16.40;42.80
74294;DHT22;62688;59.904;10.738;2022-08-30T05:28:47;16.50;43.30
74294;DHT22;62688;59.904;10.738;2022-08-30T05:31:14;16.50;42.10
74294;DHT22;62688;59.904;10.738;2022-08-30T05:33:40;16.60;42.70
74294;DHT22;62688;59.904;10.738;2022-08-30T05:36:06;16.60;42.40
74294;DHT22;62688;59.904;10.738;2022-08-30T05:38:31;16.70;42.20
74294;DHT22;62688;59.904;10.738;2022-08-30T05:40:57;16.70;42.90
74294;DHT22;62688;59.904;10.738;2022-08-30T05:43:22;16.70;43.10
74294;DHT22;62688;59.904;10.738;2022-08-30T05:45:48;16.80;43.80
74294;DHT22;62688;59.904;10.738;2022-08-30T05:48:22;16.80;43.30
74294;DHT22;62688;59.904;10.738;2022-08-30T05:50:47;16.90;43.20
74294;DHT22;62688;59.904;10.738;2022-08-30T05:53:13;16.90;42.60
74294;DHT22;62688;59.904;10.738;2022-08-30T05:55:39;16.90;41.30
74294;DHT22;62688;59.904;10.738;2022-08-30T05:58:05;17.00;41.50
74294;DHT22;62688;59.904;10.738;2022-08-30T06:00:30;17.00;41.60
74294;DHT22;62688;59.904;10.738;2022-08-30T06:02:56;17.00;41.70
74294;DHT22;62688;59.904;10.738;2022-08-30T06:05:21;17.10;41.90
74294;DHT22;62688;59.904;10.738;2022-08-30T06:07:47;17.10;41.40
74294;DHT22;62688;59.904;10.738;2022-08-30T06:10:13;17.20;41.40
74294;DHT22;62688;59.904;10.738;2022-08-30T06:12:39;17.20;41.00
74294;DHT22;62688;59.904;10.738;2022-08-30T06:15:05;17.30;41.30
74294;DHT22;62688;59.904;10.738;2022-08-30T06:17:31;17.30;41.50
74294;DHT22;62688;59.904;10.738;2022-08-30T06:19:56;17.40;41.30
74294;DHT22;62688;59.904;10.738;2022-08-30T06:22:22;17.40;40.60
74294;DHT22;62688;59.904;10.738;2022-08-30T06:24:47;17.50;41.10
74294;DHT22;62688;59.904;10.738;2022-08-30T06:27:12;17.50;40.70
74294;DHT22;62688;59.904;10.738;2022-08-30T06:29:38;17.60;41.00
74294;DHT22;62688;59.904;10.738;2022-08-30T06:32:04;17.60;40.60
74294;DHT22;62688;59.904;10.738;2022-08-30T06:34:29;17.60;41.00
74294;DHT22;62688;59.904;10.738;2022-08-30T06:36:55;17.70;40.80
74294;DHT22;62688;59.904;10.738;2022-08-30T06:39:20;17.70;41.60
74294;DHT22;62688;59.904;10.738;2022-08-30T06:41:46;17.70;41.40
74294;DHT22;62688;59.904;10.738;2022-08-30T06:44:11;17.70;41.50
74294;DHT22;62688;59.904;10.738;2022-08-30T06:46:37;17.70;41.00
74294;DHT22;62688;59.904;10.738;2022-08-30T06:49:03;17.80;41.00
74294;DHT22;62688;59.904;10.738;2022-08-30T06:51:30;17.80;40.70
74294;DHT22;62688;59.904;10.738;2022-08-30T06:53:56;17.80;41.00
74294;DHT22;62688;59.904;10.738;2022-08-30T06:56:22;17.90;40.80
74294;DHT22;62688;59.904;10.738;2022-08-30T06:58:48;17.90;40.90
74294;DHT22;62688;59.904;10.738;2022-08-30T07:01:15;17.90;40.60
74294;DHT22;62688;59.904;10.738;2022-08-30T07:03:41;18.00;41.60
74294;DHT22;62688;59.904;10.738;2022-08-30T07:06:06;18.10;41.40
74294;DHT22;62688;59.904;10.738;2022-08-30T07:08:32;18.10;41.80
74294;DHT22;62688;59.904;10.738;2022-08-30T07:10:57;18.20;41.20
74294;DHT22;62688;59.904;10.738;2022-08-30T07:13:24;18.30;41.90
74294;DHT22;62688;59.904;10.738;2022-08-30T07:15:50;18.40;41.50
74294;DHT22;62688;59.904;10.738;2022-08-30T07:18:15;18.40;41.80
74294;DHT22;62688;59.904;10.738;2022-08-30T07:21:07;18.50;41.20
74294;DHT22;62688;59.904;10.738;2022-08-30T07:23:32;18.50;41.40
74294;DHT22;62688;59.904;10.738;2022-08-30T07:26:01;18.60;41.40
74294;DHT22;62688;59.904;10.738;2022-08-30T07:28:27;18.70;41.00
74294;DHT22;62688;59.904;10.738;2022-08-30T07:30:52;18.80;41.10
74294;DHT22;62688;59.904;10.738;2022-08-30T07:33:18;18.80;41.10
74294;DHT22;62688;59.904;10.738;2022-08-30T07:35:43;18.90;40.40
74294;DHT22;62688;59.904;10.738;2022-08-30T07:38:11;19.00;40.40
74294;DHT22;62688;59.904;10.738;2022-08-30T07:40:37;19.10;40.70
74294;DHT22;62688;59.904;10.738;2022-08-30T07:43:02;19.10;40.60
74294;DHT22;62688;59.904;10.738;2022-08-30T07:45:28;19.20;40.50
74294;DHT22;62688;59.904;10.738;2022-08-30T07:47:53;19.30;40.60
74294;DHT22;62688;59.904;10.738;2022-08-30T07:50:19;19.40;40.60
74294;DHT22;62688;59.904;10.738;2022-08-30T07:52:44;19.50;40.60
74294;DHT22;62688;59.904;10.738;2022-08-30T07:55:10;19.60;40.30
74294;DHT22;62688;59.904;10.738;2022-08-30T07:57:35;19.70;39.80
74294;DHT22;62688;59.904;10.738;2022-08-30T08:00:01;19.80;39.80
74294;DHT22;62688;59.904;10.738;2022-08-30T08:02:26;19.90;39.50
74294;DHT22;62688;59.904;10.738;2022-08-30T08:04:52;20.00;39.80
74294;DHT22;62688;59.904;10.738;2022-08-30T08:07:18;20.10;39.60
74294;DHT22;62688;59.904;10.738;2022-08-30T08:09:43;20.20;39.40
74294;DHT22;62688;59.904;10.738;2022-08-30T08:12:09;20.20;39.10
74294;DHT22;62688;59.904;10.738;2022-08-30T08:14:34;20.30;39.00
74294;DHT22;62688;59.904;10.738;2022-08-30T08:17:00;20.40;39.00
74294;DHT22;62688;59.904;10.738;2022-08-30T08:19:29;20.40;38.80
74294;DHT22;62688;59.904;10.738;2022-08-30T08:21:54;20.50;38.70
74294;DHT22;62688;59.904;10.738;2022-08-30T08:24:23;20.50;38.70
74294;DHT22;62688;59.904;10.738;2022-08-30T08:26:48;20.60;38.60
74294;DHT22;62688;59.904;10.738;2022-08-30T08:29:14;20.70;38.50
74294;DHT22;62688;59.904;10.738;2022-08-30T08:31:40;20.70;38.30
74294;DHT22;62688;59.904;10.738;2022-08-30T08:34:06;20.70;38.70
74294;DHT22;62688;59.904;10.738;2022-08-30T08:36:32;20.80;38.10
74294;DHT22;62688;59.904;10.738;2022-08-30T08:38:58;20.80;38.00
74294;DHT22;62688;59.904;10.738;2022-08-30T08:43:49;20.90;37.70
74294;DHT22;62688;59.904;10.738;2022-08-30T08:46:19;20.90;37.60
74294;DHT22;62688;59.904;10.738;2022-08-30T08:48:49;21.00;37.60
74294;DHT22;62688;59.904;10.738;2022-08-30T08:51:20;21.00;37.50
74294;DHT22;62688;59.904;10.738;2022-08-30T08:56:31;21.00;37.60
74294;DHT22;62688;59.904;10.738;2022-08-30T08:58:56;21.00;37.40
74294;DHT22;62688;59.904;10.738;2022-08-30T09:01:26;21.00;37.50
74294;DHT22;62688;59.904;10.738;2022-08-30T09:03:52;21.10;37.50
74294;DHT22;62688;59.904;10.738;2022-08-30T09:09:02;21.20;37.00
74294;DHT22;62688;59.904;10.738;2022-08-30T09:11:29;21.30;37.30
74294;DHT22;62688;59.904;10.738;2022-08-30T09:17:00;21.50;37.50
74294;DHT22;62688;59.904;10.738;2022-08-30T09:21:56;21.60;36.80
74294;DHT22;62688;59.904;10.738;2022-08-30T09:24:21;21.70;37.20
74294;DHT22;62688;59.904;10.738;2022-08-30T09:26:47;21.80;37.10
74294;DHT22;62688;59.904;10.738;2022-08-30T09:29:15;21.80;37.00
74294;DHT22;62688;59.904;10.738;2022-08-30T09:31:49;21.90;36.60
74294;DHT22;62688;59.904;10.738;2022-08-30T09:34:16;21.90;36.70
74294;DHT22;62688;59.904;10.738;2022-08-30T09:36:44;22.00;36.70
74294;DHT22;62688;59.904;10.738;2022-08-30T09:39:14;22.10;36.30
74294;DHT22;62688;59.904;10.738;2022-08-30T09:41:41;22.20;36.60
74294;DHT22;62688;59.904;10.738;2022-08-30T09:44:09;22.30;36.50
74294;DHT22;62688;59.904;10.738;2022-08-30T09:46:42;22.30;36.10
74294;DHT22;62688;59.904;10.738;2022-08-30T09:51:57;22.40;36.10
74294;DHT22;62688;59.904;10.738;2022-08-30T09:54:30;22.50;36.40
74294;DHT22;62688;59.904;10.738;2022-08-30T09:57:15;22.60;36.00
74294;DHT22;62688;59.904;10.738;2022-08-30T10:08:14;22.90;36.00
74294;DHT22;62688;59.904;10.738;2022-08-30T10:10:15;23.00;35.90
74294;DHT22;62688;59.904;10.738;2022-08-30T10:15:19;23.10;35.40
74294;DHT22;62688;59.904;10.738;2022-08-30T10:21:17;23.20;35.50
74294;DHT22;62688;59.904;10.738;2022-08-30T10:23:18;23.30;35.10
74294;DHT22;62688;59.904;10.738;2022-08-30T10:25:49;23.30;34.40
74294;DHT22;62688;59.904;10.738;2022-08-30T10:28:18;23.30;34.60
74294;DHT22;62688;59.904;10.738;2022-08-30T10:30:56;23.40;34.90
74294;DHT22;62688;59.904;10.738;2022-08-30T10:33:44;23.40;35.10
74294;DHT22;62688;59.904;10.738;2022-08-30T10:36:12;23.50;35.20
74294;DHT22;62688;59.904;10.738;2022-08-30T10:38:39;23.50;34.80
74294;DHT22;62688;59.904;10.738;2022-08-30T10:46:25;23.70;34.50
74294;DHT22;62688;59.904;10.738;2022-08-30T10:48:52;23.80;34.80
74294;DHT22;62688;59.904;10.738;2022-08-30T10:54:24;24.00;34.00
74294;DHT22;62688;59.904;10.738;2022-08-30T10:56:53;24.00;34.70
74294;DHT22;62688;59.904;10.738;2022-08-30T10:59:18;24.20;34.70
74294;DHT22;62688;59.904;10.738;2022-08-30T11:01:49;24.20;33.60
74294;DHT22;62688;59.904;10.738;2022-08-30T11:07:06;24.40;34.20
74294;DHT22;62688;59.904;10.738;2022-08-30T11:14:44;24.70;33.80
74294;DHT22;62688;59.904;10.738;2022-08-30T11:17:25;24.80;34.00
74294;DHT22;62688;59.904;10.738;2022-08-30T11:19:51;24.90;33.60
74294;DHT22;62688;59.904;10.738;2022-08-30T11:22:22;25.00;33.80
74294;DHT22;62688;59.904;10.738;2022-08-30T11:27:39;25.30;33.90
74294;DHT22;62688;59.904;10.738;2022-08-30T11:33:00;25.50;33.60
74294;DHT22;62688;59.904;10.738;2022-08-30T11:35:34;25.60;31.00
74294;DHT22;62688;59.904;10.738;2022-08-30T11:38:00;25.80;33.40
74294;DHT22;62688;59.904;10.738;2022-08-30T11:42:51;26.10;33.10
74294;DHT22;62688;59.904;10.738;2022-08-30T11:50:18;26.70;30.50
74294;DHT22;62688;59.904;10.738;2022-08-30T11:52:53;26.90;30.90
74294;DHT22;62688;59.904;10.738;2022-08-30T11:58:12;27.10;31.20
74294;DHT22;62688;59.904;10.738;2022-08-30T12:00:43;27.10;30.90
74294;DHT22;62688;59.904;10.738;2022-08-30T12:10:56;27.10;31.40
74294;DHT22;62688;59.904;10.738;2022-08-30T12:21:44;27.30;29.80
74294;DHT22;62688;59.904;10.738;2022-08-30T12:23:51;27.50;29.60
74294;DHT22;62688;59.904;10.738;2022-08-30T12:28:49;28.10;30.20
74294;DHT22;62688;59.904;10.738;2022-08-30T12:31:20;28.50;31.00
74294;DHT22;62688;59.904;10.738;2022-08-30T12:33:48;28.80;31.60
74294;DHT22;62688;59.904;10.738;2022-08-30T12:41:36;29.80;28.30
74294;DHT22;62688;59.904;10.738;2022-08-30T12:44:02;30.20;29.70
74294;DHT22;62688;59.904;10.738;2022-08-30T12:46:28;30.50;29.00
74294;DHT22;62688;59.904;10.738;2022-08-30T12:48:55;30.90;29.20
74294;DHT22;62688;59.904;10.738;2022-08-30T12:51:28;31.20;29.70
74294;DHT22;62688;59.904;10.738;2022-08-30T12:54:00;31.50;29.70
74294;DHT22;62688;59.904;10.738;2022-08-30T12:56:43;31.80;29.20
74294;DHT22;62688;59.904;10.738;2022-08-30T12:59:09;32.00;27.80
74294;DHT22;62688;59.904;10.738;2022-08-30T13:01:34;32.00;28.50
74294;DHT22;62688;59.904;10.738;2022-08-30T13:04:02;32.00;28.40
74294;DHT22;62688;59.904;10.738;2022-08-30T13:09:30;31.80;28.00
74294;DHT22;62688;59.904;10.738;2022-08-30T13:11:58;31.80;28.20
74294;DHT22;62688;59.904;10.738;2022-08-30T13:14:29;32.00;26.10
74294;DHT22;62688;59.904;10.738;2022-08-30T13:19:41;32.50;27.30
74294;DHT22;62688;59.904;10.738;2022-08-30T13:22:22;33.00;28.50
74294;DHT22;62688;59.904;10.738;2022-08-30T13:24:49;33.40;24.80
74294;DHT22;62688;59.904;10.738;2022-08-30T13:27:14;33.90;25.50
74294;DHT22;62688;59.904;10.738;2022-08-30T13:29:40;34.20;22.40
74294;DHT22;62688;59.904;10.738;2022-08-30T13:32:05;34.60;21.70
74294;DHT22;62688;59.904;10.738;2022-08-30T13:34:31;34.90;23.10
74294;DHT22;62688;59.904;10.738;2022-08-30T13:36:59;35.20;24.90
74294;DHT22;62688;59.904;10.738;2022-08-30T13:39:25;35.50;22.90
74294;DHT22;62688;59.904;10.738;2022-08-30T13:41:50;35.70;24.70
74294;DHT22;62688;59.904;10.738;2022-08-30T13:44:16;36.00;24.70
74294;DHT22;62688;59.904;10.738;2022-08-30T13:46:43;36.30;23.60
74294;DHT22;62688;59.904;10.738;2022-08-30T13:49:23;36.60;24.50
74294;DHT22;62688;59.904;10.738;2022-08-30T13:51:49;36.90;21.30
74294;DHT22;62688;59.904;10.738;2022-08-30T13:54:20;37.20;23.20
74294;DHT22;62688;59.904;10.738;2022-08-30T13:56:50;37.50;22.30
74294;DHT22;62688;59.904;10.738;2022-08-30T13:59:16;37.70;20.90
74294;DHT22;62688;59.904;10.738;2022-08-30T14:01:42;37.70;20.90
74294;DHT22;62688;59.904;10.738;2022-08-30T14:04:07;37.50;22.50
74294;DHT22;62688;59.904;10.738;2022-08-30T14:06:33;37.20;22.00
74294;DHT22;62688;59.904;10.738;2022-08-30T14:08:58;36.90;21.60
74294;DHT22;62688;59.904;10.738;2022-08-30T14:11:24;36.60;21.60
74294;DHT22;62688;59.904;10.738;2022-08-30T14:13:50;36.50;22.10
74294;DHT22;62688;59.904;10.738;2022-08-30T14:16:15;36.30;22.20
74294;DHT22;62688;59.904;10.738;2022-08-30T14:18:41;36.30;23.60
74294;DHT22;62688;59.904;10.738;2022-08-30T14:21:06;36.20;23.40
74294;DHT22;62688;59.904;10.738;2022-08-30T14:23:32;36.20;22.10
74294;DHT22;62688;59.904;10.738;2022-08-30T14:25:57;36.30;21.30
74294;DHT22;62688;59.904;10.738;2022-08-30T14:28:24;36.30;21.10
74294;DHT22;62688;59.904;10.738;2022-08-30T14:30:52;36.50;22.40
74294;DHT22;62688;59.904;10.738;2022-08-30T14:33:18;36.70;22.70
74294;DHT22;62688;59.904;10.738;2022-08-30T14:35:43;36.80;23.70
74294;DHT22;62688;59.904;10.738;2022-08-30T14:38:09;37.00;21.80
74294;DHT22;62688;59.904;10.738;2022-08-30T14:40:34;37.30;21.70
74294;DHT22;62688;59.904;10.738;2022-08-30T14:43:00;37.60;22.30
74294;DHT22;62688;59.904;10.738;2022-08-30T14:45:25;38.00;22.40
74294;DHT22;62688;59.904;10.738;2022-08-30T14:47:51;38.40;21.20
74294;DHT22;62688;59.904;10.738;2022-08-30T14:50:16;38.70;22.00
74294;DHT22;62688;59.904;10.738;2022-08-30T14:52:42;39.00;22.80
74294;DHT22;62688;59.904;10.738;2022-08-30T14:55:09;39.30;21.90
74294;DHT22;62688;59.904;10.738;2022-08-30T14:57:35;39.50;21.50
74294;DHT22;62688;59.904;10.738;2022-08-30T15:00:01;39.70;21.40
74294;DHT22;62688;59.904;10.738;2022-08-30T15:02:26;39.90;20.80
74294;DHT22;62688;59.904;10.738;2022-08-30T15:04:52;40.00;22.20
74294;DHT22;62688;59.904;10.738;2022-08-30T15:07:17;40.20;20.20
74294;DHT22;62688;59.904;10.738;2022-08-30T15:09:43;40.20;20.60
74294;DHT22;62688;59.904;10.738;2022-08-30T15:12:08;40.20;21.20
74294;DHT22;62688;59.904;10.738;2022-08-30T15:14:34;40.20;21.40
74294;DHT22;62688;59.904;10.738;2022-08-30T15:17:00;40.10;19.30
74294;DHT22;62688;59.904;10.738;2022-08-30T15:19:27;40.10;19.60
74294;DHT22;62688;59.904;10.738;2022-08-30T15:21:53;40.10;20.40
74294;DHT22;62688;59.904;10.738;2022-08-30T15:24:20;40.20;21.10
74294;DHT22;62688;59.904;10.738;2022-08-30T15:26:46;40.00;19.80
74294;DHT22;62688;59.904;10.738;2022-08-30T15:29:13;39.70;18.80
74294;DHT22;62688;59.904;10.738;2022-08-30T15:31:39;39.40;18.80
74294;DHT22;62688;59.904;10.738;2022-08-30T15:34:05;39.10;19.30
74294;DHT22;62688;59.904;10.738;2022-08-30T15:36:31;38.70;18.30
74294;DHT22;62688;59.904;10.738;2022-08-30T15:38:57;38.30;19.30
74294;DHT22;62688;59.904;10.738;2022-08-30T15:41:24;37.90;19.00
74294;DHT22;62688;59.904;10.738;2022-08-30T15:43:49;37.60;19.30
74294;DHT22;62688;59.904;10.738;2022-08-30T15:46:24;37.40;19.40
74294;DHT22;62688;59.904;10.738;2022-08-30T15:48:50;37.10;19.70
74294;DHT22;62688;59.904;10.738;2022-08-30T15:51:17;36.80;19.60
74294;DHT22;62688;59.904;10.738;2022-08-30T15:53:43;36.50;19.70
74294;DHT22;62688;59.904;10.738;2022-08-30T15:56:09;36.10;19.70
74294;DHT22;62688;59.904;10.738;2022-08-30T15:58:35;35.70;19.90
74294;DHT22;62688;59.904;10.738;2022-08-30T16:01:01;35.30;19.70
74294;DHT22;62688;59.904;10.738;2022-08-30T16:03:29;34.80;19.80
74294;DHT22;62688;59.904;10.738;2022-08-30T16:05:54;34.20;20.10
74294;DHT22;62688;59.904;10.738;2022-08-30T16:08:20;33.70;20.00
74294;DHT22;62688;59.904;10.738;2022-08-30T16:10:45;33.10;20.20
74294;DHT22;62688;59.904;10.738;2022-08-30T16:13:11;32.70;20.50
74294;DHT22;62688;59.904;10.738;2022-08-30T16:15:38;32.20;20.80
74294;DHT22;62688;59.904;10.738;2022-08-30T16:18:04;31.80;21.10
74294;DHT22;62688;59.904;10.738;2022-08-30T16:20:29;31.70;21.70
74294;DHT22;62688;59.904;10.738;2022-08-30T16:22:55;31.80;22.20
74294;DHT22;62688;59.904;10.738;2022-08-30T16:25:21;32.10;22.60
74294;DHT22;62688;59.904;10.738;2022-08-30T16:27:46;32.40;22.60
74294;DHT22;62688;59.904;10.738;2022-08-30T16:30:12;32.80;22.70
74294;DHT22;62688;59.904;10.738;2022-08-30T16:32:37;33.30;22.20
74294;DHT22;62688;59.904;10.738;2022-08-30T16:35:03;33.70;22.10
74294;DHT22;62688;59.904;10.738;2022-08-30T16:37:29;34.10;21.70
74294;DHT22;62688;59.904;10.738;2022-08-30T16:39:55;34.50;22.10
74294;DHT22;62688;59.904;10.738;2022-08-30T16:42:20;34.80;21.80
74294;DHT22;62688;59.904;10.738;2022-08-30T16:44:46;35.10;22.10
74294;DHT22;62688;59.904;10.738;2022-08-30T16:47:12;35.40;22.10
74294;DHT22;62688;59.904;10.738;2022-08-30T16:49:37;35.70;21.40